Ruffner, Alabama
Current Conditions -  °F | °C
As of 5:53 PM on Monday 20 Oct 2014 (Local Time) from KBHM Reporting Station
Few Clouds Few Clouds  
Wind Chill: 69°   Ceiling: Unl
Heat Index: 69°   Visibility: 10mi
Dew Point: 47°   Wind: 7mph
Humidity: 45%   Direction: 290°WNW
Pressure: 30.02"   Gusts: NA
Location:  33.5393°N, 86.6626°W
Report Text: KBHM 202253Z 29006KT 10SM FEW250 21/08 A3002 RMK AO2 SLP164 T02060083
Loading
Personal Weather Stations






























Interactive Weather Map
Tropical Storm Tracking
New forecast layout! Learn more

10-Day Weather Forecast

Advertisements
Track Severe Weather on mobile